createdAt,value
2022-09-20T00:05:02.277Z,87.04
2022-09-20T00:07:30.871Z,87.76
2022-09-20T00:10:05.165Z,87.38
2022-09-20T00:12:37.757Z,88.41
2022-09-20T00:15:07.263Z,88.23
2022-09-20T00:17:34.814Z,88.42
2022-09-20T00:20:04.190Z,88.56
2022-09-20T00:22:34.268Z,88.20
2022-09-20T00:25:10.906Z,88.76
2022-09-20T00:27:41.405Z,88.49
2022-09-20T00:32:36.527Z,86.94
2022-09-20T00:35:14.948Z,87.47
2022-09-20T00:37:43.965Z,87.04
2022-09-20T00:40:20.636Z,87.25
2022-09-20T00:42:50.338Z,87.62
2022-09-20T00:45:30.690Z,86.74
2022-09-20T00:48:03.653Z,87.16
2022-09-20T00:51:03.188Z,86.94
2022-09-20T00:53:43.084Z,86.38
2022-09-20T00:56:38.643Z,86.31
2022-09-20T00:59:29.177Z,86.88
2022-09-20T01:02:15.046Z,87.06
2022-09-20T01:04:44.681Z,88.06
2022-09-20T01:07:20.037Z,87.75
2022-09-20T01:09:47.202Z,86.64
2022-09-20T01:12:22.258Z,86.82
2022-09-20T01:14:51.440Z,86.71
2022-09-20T01:17:21.997Z,86.17
2022-09-20T01:20:18.912Z,87.01
2022-09-20T01:23:19.144Z,86.56
2022-09-20T01:26:10.172Z,87.30
2022-09-20T01:28:42.811Z,87.19
2022-09-20T01:31:25.889Z,87.36
2022-09-20T01:34:03.007Z,86.93
2022-09-20T01:37:11.755Z,88.03
2022-09-20T01:40:15.205Z,86.88
2022-09-20T01:43:00.210Z,86.99
2022-09-20T01:45:32.234Z,86.86
2022-09-20T01:48:37.252Z,86.08
2022-09-20T01:51:30.163Z,86.89
2022-09-20T01:54:49.687Z,87.12
2022-09-20T01:57:46.443Z,86.94
2022-09-20T02:01:15.692Z,87.33
2022-09-20T02:03:45.537Z,87.18
2022-09-20T02:06:34.385Z,87.80
2022-09-20T02:09:15.685Z,86.81
2022-09-20T02:12:21.950Z,87.06
2022-09-20T02:15:28.481Z,86.68
2022-09-20T02:18:13.417Z,87.20
2022-09-20T02:21:24.058Z,87.32
2022-09-20T02:24:32.201Z,87.76
2022-09-20T02:27:25.768Z,88.35
2022-09-20T02:30:13.822Z,87.17
2022-09-20T02:32:55.857Z,87.55
2022-09-20T02:36:02.214Z,87.69
2022-09-20T02:38:50.272Z,86.91
2022-09-20T02:41:45.174Z,87.09
2022-09-20T02:44:23.587Z,87.48
2022-09-20T02:47:36.729Z,87.34
2022-09-20T02:50:47.525Z,88.07
2022-09-20T02:53:33.074Z,88.08
2022-09-20T02:56:26.858Z,88.25
2022-09-20T02:59:04.779Z,88.71
2022-09-20T03:02:03.309Z,88.38
2022-09-20T03:04:58.484Z,88.32
2022-09-20T03:08:13.258Z,88.56
2022-09-20T03:10:46.440Z,88.30
2022-09-20T03:13:34.083Z,88.57
2022-09-20T03:16:31.781Z,89.10
2022-09-20T03:20:03.305Z,89.20
2022-09-20T03:22:49.777Z,88.89
2022-09-20T03:25:28.090Z,89.29
2022-09-20T03:28:06.845Z,88.82
2022-09-20T03:31:13.503Z,88.29
2022-09-20T03:33:58.029Z,87.73
2022-09-20T03:37:17.174Z,87.97
2022-09-20T03:40:11.806Z,88.09
2022-09-20T03:42:49.837Z,88.75
2022-09-20T03:45:50.560Z,88.58
2022-09-20T03:48:45.155Z,88.79
2022-09-20T03:51:39.230Z,86.87
2022-09-20T03:54:37.412Z,88.51
2022-09-20T03:57:48.773Z,88.59
2022-09-20T04:00:49.447Z,88.38
2022-09-20T04:03:35.733Z,87.98
2022-09-20T04:06:47.143Z,86.75
2022-09-20T04:09:41.533Z,86.81
2022-09-20T04:12:48.625Z,87.62
2022-09-20T04:15:52.377Z,87.74
2022-09-20T04:18:38.627Z,87.45
2022-09-20T04:21:15.270Z,87.19
2022-09-20T04:23:56.483Z,86.93
2022-09-20T04:26:38.394Z,87.98
2022-09-20T04:29:35.373Z,87.63
2022-09-20T04:32:14.393Z,87.29
2022-09-20T04:35:31.706Z,88.77
2022-09-20T04:38:05.517Z,89.60
2022-09-20T04:41:16.547Z,89.00
2022-09-20T04:44:25.274Z,88.02
2022-09-20T04:47:25.824Z,88.75
2022-09-20T04:50:24.951Z,89.02
2022-09-20T04:53:00.872Z,87.84
2022-09-20T04:56:14.829Z,88.39
2022-09-20T04:58:49.372Z,87.82
2022-09-20T05:01:56.194Z,87.60
2022-09-20T05:05:07.004Z,88.24
2022-09-20T05:08:46.093Z,88.38
2022-09-20T05:11:30.577Z,88.56
2022-09-20T05:14:22.883Z,88.61
2022-09-20T05:17:10.337Z,89.14
2022-09-20T05:20:13.507Z,88.84
2022-09-20T05:22:52.552Z,88.56
2022-09-20T05:25:44.419Z,87.69
2022-09-20T05:28:29.503Z,88.32
2022-09-20T05:31:15.680Z,88.01
2022-09-20T05:33:56.296Z,86.78
2022-09-20T05:37:08.236Z,86.50
2022-09-20T05:40:24.688Z,83.93
2022-09-20T05:43:28.818Z,80.05
2022-09-20T05:46:15.029Z,80.31
2022-09-20T05:49:35.293Z,75.69
2022-09-20T05:52:17.091Z,74.57
2022-09-20T05:55:30.979Z,73.49
2022-09-20T05:58:45.261Z,70.89
2022-09-20T06:01:21.848Z,68.90
2022-09-20T06:04:08.536Z,65.92
2022-09-20T06:07:01.850Z,63.66
2022-09-20T06:10:10.787Z,62.85
2022-09-20T06:12:58.926Z,63.22
2022-09-20T06:16:05.784Z,62.09
2022-09-20T06:18:51.108Z,60.82
2022-09-20T06:21:42.709Z,59.40
2022-09-20T06:24:44.187Z,56.43
2022-09-20T06:27:21.205Z,55.74
2022-09-20T06:29:58.816Z,54.33
2022-09-20T06:32:28.172Z,53.97
2022-09-20T06:34:55.318Z,51.59
2022-09-20T06:38:02.123Z,50.27
2022-09-20T06:41:05.202Z,48.57
2022-09-20T06:43:32.147Z,47.95
2022-09-20T06:46:06.180Z,47.83
2022-09-20T06:48:39.903Z,46.92
2022-09-20T06:51:09.923Z,44.75
2022-09-20T06:53:40.419Z,44.22
2022-09-20T06:56:17.302Z,42.73
2022-09-20T06:58:44.360Z,42.35
2022-09-20T07:01:20.000Z,41.39
2022-09-20T07:03:59.064Z,40.80
2022-09-20T07:06:29.258Z,40.58
2022-09-20T07:08:56.192Z,39.81
2022-09-20T07:11:25.434Z,38.26
2022-09-20T07:13:58.262Z,37.66
2022-09-20T07:16:28.024Z,36.54
2022-09-20T07:18:58.162Z,36.53
2022-09-20T07:21:25.350Z,35.67
2022-09-20T07:23:54.132Z,35.16
2022-09-20T07:26:26.510Z,34.59
2022-09-20T07:28:57.621Z,35.04
2022-09-20T07:31:26.793Z,33.92
2022-09-20T07:33:54.204Z,34.72
2022-09-20T07:36:23.687Z,32.81
2022-09-20T07:38:53.145Z,33.19
2022-09-20T07:41:22.798Z,31.74
2022-09-20T07:43:50.949Z,31.33
2022-09-20T07:46:24.196Z,31.41
2022-09-20T07:48:51.408Z,30.67
2022-09-20T07:51:20.632Z,30.48
2022-09-20T07:53:51.435Z,30.22
2022-09-20T07:56:18.980Z,29.63
2022-09-20T07:58:52.343Z,29.54
2022-09-20T08:01:22.211Z,29.73
2022-09-20T08:03:55.379Z,29.50
2022-09-20T08:06:25.161Z,29.01
2022-09-20T08:08:52.603Z,30.10
2022-09-20T08:11:27.803Z,29.74
2022-09-20T08:14:08.289Z,28.46
2022-09-20T08:16:47.519Z,28.11
2022-09-20T08:19:21.383Z,26.59
2022-09-20T08:21:54.561Z,26.05
2022-09-20T08:24:22.160Z,25.96
2022-09-20T08:26:49.039Z,25.78
2022-09-20T08:29:18.053Z,24.29
2022-09-20T08:31:46.414Z,26.33
2022-09-20T08:34:15.195Z,25.41
2022-09-20T08:36:47.654Z,25.61
2022-09-20T08:42:33.892Z,23.76
2022-09-20T08:45:22.172Z,23.80
2022-09-20T08:48:05.539Z,23.03
2022-09-20T08:50:36.908Z,23.32
2022-09-20T08:53:05.101Z,23.37
2022-09-20T08:55:40.176Z,23.25
2022-09-20T08:58:11.766Z,22.49
2022-09-20T09:00:48.375Z,24.14
2022-09-20T09:03:19.123Z,23.45
2022-09-20T09:05:58.441Z,22.57
2022-09-20T09:08:37.909Z,22.61
2022-09-20T09:11:09.704Z,22.45
2022-09-20T09:14:35.205Z,22.41
2022-09-20T09:17:04.448Z,21.56
2022-09-20T09:19:49.931Z,21.01
2022-09-20T09:22:39.636Z,22.00
2022-09-20T09:25:17.178Z,23.30
2022-09-20T09:28:03.823Z,23.56
2022-09-20T09:30:43.257Z,22.51
2022-09-20T09:33:31.630Z,21.62
2022-09-20T09:36:08.999Z,22.88
2022-09-20T09:38:47.639Z,25.11
2022-09-20T09:41:29.955Z,23.20
2022-09-20T09:44:27.757Z,21.58
2022-09-20T09:46:57.447Z,21.03
2022-09-20T09:49:36.381Z,20.20
2022-09-20T09:52:18.089Z,19.90
2022-09-20T09:54:55.113Z,21.82
2022-09-20T09:57:34.425Z,22.18
2022-09-20T10:00:20.188Z,23.29
2022-09-20T10:03:19.859Z,23.67
2022-09-20T10:06:05.180Z,20.37
2022-09-20T10:09:09.109Z,19.63
2022-09-20T10:12:17.647Z,18.35
2022-09-20T10:15:12.176Z,18.65
2022-09-20T10:17:55.769Z,18.19
2022-09-20T10:21:25.016Z,19.00
2022-09-20T10:24:31.129Z,20.43
2022-09-20T10:27:10.622Z,21.03
2022-09-20T10:29:40.179Z,19.47
2022-09-20T10:32:27.153Z,19.36
2022-09-20T10:35:02.889Z,18.97
2022-09-20T10:37:48.567Z,18.41
2022-09-20T10:40:16.304Z,17.75
2022-09-20T10:43:09.053Z,17.60
2022-09-20T10:46:27.602Z,17.25
2022-09-20T10:49:37.046Z,17.02
2022-09-20T10:52:31.301Z,16.92
2022-09-20T10:55:30.493Z,17.01
2022-09-20T10:58:24.657Z,20.25
2022-09-20T11:00:58.098Z,22.01
2022-09-20T11:03:55.703Z,22.97
2022-09-20T11:06:44.176Z,21.08
2022-09-20T11:09:20.200Z,19.12
2022-09-20T11:11:54.191Z,19.56
2022-09-20T11:14:33.550Z,19.60
2022-09-20T11:17:39.273Z,22.12
2022-09-20T11:20:30.540Z,21.92
2022-09-20T11:23:12.291Z,19.42
2022-09-20T11:26:10.610Z,18.65
2022-09-20T11:28:51.353Z,21.76
2022-09-20T11:31:20.294Z,24.42
2022-09-20T11:33:55.966Z,25.24
2022-09-20T11:36:59.506Z,24.87
2022-09-20T11:40:04.640Z,22.53
2022-09-20T11:42:38.745Z,22.13
2022-09-20T11:45:06.555Z,21.04
2022-09-20T11:47:54.386Z,19.22
2022-09-20T11:50:58.799Z,18.16
2022-09-20T11:53:47.247Z,17.21
2022-09-20T11:56:29.250Z,20.09
2022-09-20T11:59:05.844Z,22.44
2022-09-20T12:01:43.767Z,22.45
2022-09-20T12:04:35.572Z,23.76
2022-09-20T12:07:19.374Z,24.56
2022-09-20T12:10:24.971Z,24.54
2022-09-20T12:13:07.769Z,22.56
2022-09-20T12:15:41.864Z,20.58
2022-09-20T12:18:35.730Z,20.16
2022-09-20T12:21:16.332Z,19.01
2022-09-20T12:23:46.624Z,17.56
2022-09-20T12:26:22.597Z,17.22
2022-09-20T12:28:50.265Z,17.04
2022-09-20T12:31:20.251Z,17.34
2022-09-20T12:34:11.929Z,17.00
2022-09-20T12:36:44.660Z,16.71
2022-09-20T12:39:11.508Z,17.24
2022-09-20T12:42:01.323Z,18.45
2022-09-20T12:44:39.821Z,17.62
2022-09-20T12:47:21.330Z,17.49
2022-09-20T12:50:06.645Z,17.13
2022-09-20T12:52:53.888Z,17.29
2022-09-20T12:55:27.229Z,17.43
2022-09-20T12:58:17.172Z,20.71
2022-09-20T13:00:49.546Z,21.35
2022-09-20T13:03:29.142Z,20.17
2022-09-20T13:06:14.843Z,19.79
2022-09-20T13:09:08.513Z,19.01
2022-09-20T13:11:43.883Z,18.04
2022-09-20T13:14:24.385Z,17.71
2022-09-20T13:16:59.442Z,16.21
2022-09-20T13:19:32.679Z,16.66
2022-09-20T13:22:25.600Z,16.74
2022-09-20T13:24:57.881Z,17.15
2022-09-20T13:27:44.183Z,17.34
2022-09-20T13:30:19.977Z,17.64
2022-09-20T13:32:52.763Z,17.32
2022-09-20T13:35:32.674Z,16.79
2022-09-20T13:38:05.727Z,17.50
2022-09-20T13:40:45.253Z,16.83
2022-09-20T13:43:49.427Z,17.23
2022-09-20T13:46:43.042Z,17.29
2022-09-20T13:49:25.017Z,17.37
2022-09-20T13:51:54.710Z,17.68
2022-09-20T13:54:31.507Z,17.80
2022-09-20T13:57:03.425Z,19.06
2022-09-20T13:59:45.404Z,18.53
2022-09-20T14:02:30.719Z,20.28
2022-09-20T14:05:05.609Z,20.89
2022-09-20T14:07:36.890Z,22.73
2022-09-20T14:10:05.337Z,22.85
2022-09-20T14:12:36.226Z,24.82
2022-09-20T14:15:10.324Z,25.85
2022-09-20T14:17:37.553Z,27.34
2022-09-20T14:20:05.746Z,29.42
2022-09-20T14:22:32.781Z,30.68
2022-09-20T14:25:15.107Z,28.14
2022-09-20T14:27:42.375Z,25.83
2022-09-20T14:30:39.230Z,24.58
2022-09-20T14:33:18.044Z,23.98
2022-09-20T14:35:52.464Z,23.03
2022-09-20T14:38:25.004Z,21.79
2022-09-20T14:40:52.756Z,21.93
2022-09-20T14:43:34.838Z,22.18
2022-09-20T14:46:15.818Z,21.21
2022-09-20T14:48:45.400Z,20.84
2022-09-20T14:51:18.970Z,20.62
2022-09-20T14:53:52.882Z,20.91
2022-09-20T14:56:49.708Z,20.68
2022-09-20T14:59:30.269Z,20.86
2022-09-20T15:02:03.639Z,21.13
2022-09-20T15:04:32.777Z,21.73
2022-09-20T15:07:11.497Z,22.07
2022-09-20T15:09:38.638Z,22.86
2022-09-20T15:12:12.551Z,22.89
2022-09-20T15:14:41.405Z,23.16
2022-09-20T15:17:19.176Z,23.62
2022-09-20T15:19:50.181Z,23.91
2022-09-20T15:22:17.567Z,23.70
2022-09-20T15:24:48.776Z,24.06
2022-09-20T15:27:18.207Z,24.33
2022-09-20T15:29:45.042Z,24.58
2022-09-20T15:32:14.987Z,24.96
2022-09-20T15:34:46.920Z,25.03
2022-09-20T15:37:14.236Z,25.36
2022-09-20T15:39:41.226Z,25.91
2022-09-20T15:42:11.132Z,25.88
2022-09-20T15:44:40.340Z,26.46
2022-09-20T15:47:07.806Z,27.33
2022-09-20T15:49:36.930Z,27.36
2022-09-20T15:52:03.929Z,27.74
2022-09-20T15:54:32.841Z,27.67
2022-09-20T15:56:59.964Z,28.43
2022-09-20T15:59:28.483Z,28.90
2022-09-20T16:01:57.878Z,29.54
2022-09-20T16:04:29.965Z,29.73
2022-09-20T16:06:56.843Z,29.95
2022-09-20T16:09:23.703Z,30.40
2022-09-20T16:11:58.664Z,31.08
2022-09-20T16:14:26.126Z,31.14
2022-09-20T16:16:56.699Z,32.05
2022-09-20T16:19:30.505Z,33.21
2022-09-20T16:21:59.924Z,33.65
2022-09-20T16:24:32.573Z,34.24
2022-09-20T16:27:01.940Z,34.82
2022-09-20T16:29:30.309Z,35.22
2022-09-20T16:32:03.408Z,36.03
2022-09-20T16:34:36.999Z,36.93
2022-09-20T16:37:07.914Z,37.49
2022-09-20T16:39:38.073Z,37.61
2022-09-20T16:42:10.642Z,38.51
2022-09-20T16:44:43.082Z,38.62
2022-09-20T16:47:24.156Z,39.37
2022-09-20T16:49:54.262Z,39.79
2022-09-20T16:52:26.612Z,40.54
2022-09-20T16:54:56.037Z,40.71
2022-09-20T16:57:23.305Z,41.07
2022-09-20T16:59:51.868Z,41.06
2022-09-20T17:02:20.017Z,41.99
2022-09-20T17:04:47.065Z,41.45
2022-09-20T17:07:14.062Z,41.91
2022-09-20T17:09:41.254Z,42.71
2022-09-20T17:12:10.776Z,43.10
2022-09-20T17:14:38.082Z,43.56
2022-09-20T17:17:05.076Z,44.27
2022-09-20T17:19:33.442Z,45.17
2022-09-20T17:22:02.755Z,45.26
2022-09-20T17:24:30.252Z,45.31
2022-09-20T17:26:57.224Z,46.54
2022-09-20T17:29:31.148Z,47.04
2022-09-20T17:32:01.163Z,48.21
2022-09-20T17:34:30.142Z,48.35
2022-09-20T17:36:57.186Z,48.65
2022-09-20T17:39:27.122Z,48.92
2022-09-20T17:41:56.800Z,49.00
2022-09-20T17:44:27.744Z,50.26
2022-09-20T17:46:57.286Z,51.62
2022-09-20T17:49:24.445Z,51.71
2022-09-20T17:51:58.136Z,53.40
2022-09-20T17:54:25.231Z,54.65
2022-09-20T17:56:57.652Z,54.66
2022-09-20T17:59:24.858Z,55.43
2022-09-20T18:01:51.939Z,56.70
2022-09-20T18:04:21.230Z,57.46
2022-09-20T18:06:52.802Z,57.50
2022-09-20T18:09:27.335Z,59.09
2022-09-20T18:11:59.570Z,57.99
2022-09-20T18:14:30.105Z,59.49
2022-09-20T18:17:02.429Z,60.05
2022-09-20T18:19:33.889Z,58.61
2022-09-20T18:22:07.039Z,58.25
2022-09-20T18:24:34.157Z,59.46
2022-09-20T18:27:04.806Z,61.61
2022-09-20T18:29:36.718Z,63.31
2022-09-20T18:32:09.877Z,64.69
2022-09-20T18:34:37.011Z,64.55
2022-09-20T18:37:06.173Z,65.34
2022-09-20T18:39:35.047Z,66.13
2022-09-20T18:42:05.026Z,65.42
2022-09-20T18:44:33.593Z,65.45
2022-09-20T18:47:06.132Z,65.03
2022-09-20T18:49:33.442Z,65.14
2022-09-20T18:52:01.002Z,65.02
2022-09-20T18:54:33.543Z,65.48
2022-09-20T18:57:01.339Z,65.03
2022-09-20T18:59:28.959Z,65.79
2022-09-20T19:03:04.771Z,66.03
2022-09-20T19:05:45.270Z,66.60
2022-09-20T19:08:35.201Z,66.45
2022-09-20T19:11:10.194Z,66.46
2022-09-20T19:13:41.266Z,66.15
2022-09-20T19:16:28.089Z,67.17
2022-09-20T19:19:00.980Z,67.63
2022-09-20T19:21:46.158Z,69.34
2022-09-20T19:24:45.025Z,70.15
2022-09-20T19:27:13.913Z,70.22
2022-09-20T19:29:41.958Z,70.20
2022-09-20T19:32:21.977Z,69.57
2022-09-20T19:35:02.326Z,69.28
2022-09-20T19:38:15.629Z,68.67
2022-09-20T19:41:12.203Z,69.98
2022-09-20T19:44:02.067Z,71.60
2022-09-20T19:46:43.824Z,70.32
2022-09-20T19:49:22.690Z,70.73
2022-09-20T19:51:55.909Z,70.94
2022-09-20T19:54:24.640Z,70.98
2022-09-20T19:56:59.955Z,70.85
2022-09-20T19:59:29.815Z,71.64
2022-09-20T20:01:57.600Z,72.06
2022-09-20T20:04:25.249Z,73.79
2022-09-20T20:07:08.721Z,72.57
2022-09-20T20:09:44.308Z,72.34
2022-09-20T20:12:46.921Z,72.97
2022-09-20T20:15:42.630Z,72.87
2022-09-20T20:18:52.328Z,73.04
2022-09-20T20:21:45.441Z,73.19
2022-09-20T20:24:41.769Z,72.14
2022-09-20T20:27:08.667Z,71.83
2022-09-20T20:29:35.594Z,72.96
2022-09-20T20:32:05.424Z,73.75
2022-09-20T20:34:32.818Z,73.61
2022-09-20T20:37:02.821Z,73.53
2022-09-20T20:39:31.521Z,73.99
2022-09-20T20:42:06.206Z,73.74
2022-09-20T20:44:37.339Z,74.33
2022-09-20T20:47:06.432Z,74.12
2022-09-20T20:49:33.959Z,74.68
2022-09-20T20:52:05.129Z,74.64
2022-09-20T20:54:32.901Z,73.87
2022-09-20T20:56:59.900Z,74.95
2022-09-20T20:59:26.981Z,74.40
2022-09-20T21:01:53.988Z,75.31
2022-09-20T21:04:21.779Z,73.91
2022-09-20T21:06:51.504Z,75.17
2022-09-20T21:09:18.450Z,74.89
2022-09-20T21:11:46.831Z,74.85
2022-09-20T21:14:17.841Z,75.47
2022-09-20T21:16:47.122Z,76.18
2022-09-20T21:19:15.812Z,75.66
2022-09-20T21:21:45.652Z,75.67
2022-09-20T21:24:17.272Z,74.55
2022-09-20T21:26:45.683Z,76.23
2022-09-20T21:29:16.575Z,76.57
2022-09-20T21:31:46.238Z,76.23
2022-09-20T21:34:20.597Z,76.26
2022-09-20T21:36:53.086Z,76.13
2022-09-20T21:39:24.120Z,76.87
2022-09-20T21:41:54.803Z,76.81
2022-09-20T21:44:21.668Z,77.12
2022-09-20T21:46:51.756Z,77.09
2022-09-20T21:49:20.042Z,76.72
2022-09-20T21:51:47.143Z,77.43
2022-09-20T21:54:20.537Z,77.84
2022-09-20T21:56:50.533Z,78.73
2022-09-20T21:59:22.538Z,78.48
2022-09-20T22:01:50.652Z,77.73
2022-09-20T22:04:23.802Z,78.99
2022-09-20T22:06:51.055Z,77.13
2022-09-20T22:09:20.661Z,79.01
2022-09-20T22:11:49.173Z,78.82
2022-09-20T22:14:19.430Z,77.64
2022-09-20T22:16:48.710Z,77.69
2022-09-20T22:19:19.235Z,78.29
2022-09-20T22:21:49.254Z,78.84
2022-09-20T22:24:17.711Z,77.56
2022-09-20T22:26:50.759Z,77.54
2022-09-20T22:29:20.276Z,78.20
2022-09-20T22:31:50.003Z,79.11
2022-09-20T22:34:24.909Z,79.33
2022-09-20T22:36:54.289Z,79.17
2022-09-20T22:39:21.360Z,79.81
2022-09-20T22:41:49.120Z,78.91
2022-09-20T22:44:16.571Z,77.75
2022-09-20T22:46:44.308Z,78.91
2022-09-20T22:49:13.779Z,78.76
2022-09-20T22:51:40.923Z,77.86
2022-09-20T22:54:11.427Z,78.66
2022-09-20T22:56:41.309Z,78.88
2022-09-20T22:59:12.410Z,78.10
2022-09-20T23:01:48.900Z,77.27
2022-09-20T23:04:19.517Z,78.61
2022-09-20T23:06:55.299Z,79.17
2022-09-20T23:09:26.702Z,79.46
2022-09-20T23:11:54.070Z,80.08
2022-09-20T23:14:24.990Z,80.27
2022-09-20T23:16:53.082Z,79.17
2022-09-20T23:19:20.479Z,79.23
2022-09-20T23:21:47.627Z,78.11
2022-09-20T23:24:16.255Z,79.38
2022-09-20T23:26:44.359Z,78.81
2022-09-20T23:29:14.741Z,80.39
2022-09-20T23:31:46.351Z,79.48
2022-09-20T23:34:17.802Z,79.46
2022-09-20T23:36:45.662Z,78.07
2022-09-20T23:39:13.748Z,79.14
2022-09-20T23:41:41.867Z,79.33
2022-09-20T23:44:10.367Z,79.72
2022-09-20T23:46:39.748Z,80.53
2022-09-20T23:49:09.878Z,80.30
2022-09-20T23:51:39.901Z,80.69
2022-09-20T23:54:07.042Z,80.49
2022-09-20T23:56:34.653Z,79.72
2022-09-20T23:59:04.053Z,81.05
